createdAt,value
2018-07-20T00:01:06.945Z,6.33
2018-07-20T00:03:35.265Z,7.63
2018-07-20T00:06:02.820Z,6.70
2018-07-20T00:08:30.400Z,7.33
2018-07-20T00:10:57.947Z,7.00
2018-07-20T00:13:25.507Z,9.53
2018-07-20T00:15:53.082Z,9.90
2018-07-20T00:18:20.628Z,7.20
2018-07-20T00:20:48.183Z,6.70
2018-07-20T00:23:15.793Z,7.23
2018-07-20T00:25:43.341Z,8.77
2018-07-20T00:28:10.901Z,6.67
2018-07-20T00:30:38.478Z,9.40
2018-07-20T00:33:06.029Z,7.20
2018-07-20T00:35:33.586Z,7.10
2018-07-20T00:38:01.166Z,8.57
2018-07-20T00:40:28.719Z,12.80
2018-07-20T00:42:56.270Z,9.70
2018-07-20T00:45:24.521Z,6.03
2018-07-20T00:47:52.074Z,7.70
2018-07-20T00:50:19.622Z,8.53
2018-07-20T00:52:47.202Z,6.90
2018-07-20T00:55:14.753Z,7.47
2018-07-20T00:57:42.307Z,7.70
2018-07-20T01:00:09.891Z,6.83
2018-07-20T01:02:37.443Z,8.97
2018-07-20T01:05:04.992Z,9.73
2018-07-20T01:07:32.582Z,6.87
2018-07-20T01:10:00.131Z,7.17
2018-07-20T01:12:27.688Z,8.00
2018-07-20T01:14:55.278Z,7.23
2018-07-20T01:17:22.824Z,7.73
2018-07-20T01:19:50.370Z,8.23
2018-07-20T01:22:17.953Z,7.00
2018-07-20T01:24:45.498Z,9.07
2018-07-20T01:27:13.053Z,8.85
2018-07-20T01:29:43.281Z,11.67
2018-07-20T01:32:10.840Z,10.00
2018-07-20T01:34:38.391Z,9.33
2018-07-20T01:37:05.980Z,11.57
2018-07-20T01:39:33.536Z,9.63
2018-07-20T01:42:01.088Z,10.70
2018-07-20T01:44:28.668Z,9.40
2018-07-20T01:46:56.222Z,8.57
2018-07-20T01:49:23.776Z,8.43
2018-07-20T01:51:51.371Z,8.77
2018-07-20T01:54:18.918Z,9.67
2018-07-20T01:56:46.466Z,9.03
2018-07-20T01:59:14.418Z,9.25
2018-07-20T02:01:41.967Z,8.90
2018-07-20T02:04:09.512Z,9.37
2018-07-20T02:06:37.094Z,9.43
2018-07-20T02:09:04.652Z,8.77
2018-07-20T02:11:32.199Z,9.53
2018-07-20T02:14:00.201Z,10.17
2018-07-20T02:16:27.764Z,8.13
2018-07-20T02:18:55.314Z,8.77
2018-07-20T02:21:22.944Z,7.23
2018-07-20T02:23:50.459Z,7.80
2018-07-20T02:26:18.009Z,8.50
2018-07-20T02:28:45.595Z,9.15
2018-07-20T02:31:13.145Z,7.33
2018-07-20T02:33:40.706Z,7.63
2018-07-20T02:36:08.355Z,8.47
2018-07-20T02:38:35.881Z,10.65
2018-07-20T02:41:03.468Z,8.93
2018-07-20T02:43:31.031Z,11.50
2018-07-20T02:45:58.590Z,10.17
2018-07-20T02:48:26.143Z,7.10
2018-07-20T02:50:53.728Z,9.10
2018-07-20T02:53:21.276Z,9.43
2018-07-20T02:55:48.830Z,9.63
2018-07-20T02:58:16.810Z,12.37
2018-07-20T03:00:44.369Z,10.07
2018-07-20T03:03:11.924Z,14.60
2018-07-20T03:05:39.510Z,9.33
2018-07-20T03:08:07.070Z,12.00
2018-07-20T03:10:34.633Z,9.77
2018-07-20T03:13:02.594Z,11.98
2018-07-20T03:15:30.159Z,10.77
2018-07-20T03:17:57.716Z,10.07
2018-07-20T03:20:25.320Z,10.40
2018-07-20T03:22:53.641Z,10.63
2018-07-20T03:25:21.203Z,11.43
2018-07-20T03:27:48.779Z,10.37
2018-07-20T03:30:16.332Z,11.07
2018-07-20T03:32:43.953Z,12.57
2018-07-20T03:35:11.463Z,9.40
2018-07-20T03:37:39.018Z,9.37
2018-07-20T03:40:06.582Z,14.90
2018-07-20T03:42:34.202Z,9.50
2018-07-20T03:45:01.761Z,13.05
2018-07-20T03:47:29.324Z,10.37
2018-07-20T03:49:56.910Z,9.57
2018-07-20T03:52:24.496Z,13.40
2018-07-20T03:54:52.050Z,10.27
2018-07-20T03:57:19.639Z,13.27
2018-07-20T03:59:47.192Z,10.27
2018-07-20T04:02:14.752Z,11.53
2018-07-20T04:04:43.203Z,12.73
2018-07-20T04:07:10.767Z,11.30
2018-07-20T04:09:38.323Z,12.13
2018-07-20T04:12:05.912Z,10.90
2018-07-20T04:14:33.461Z,13.67
2018-07-20T04:17:01.024Z,11.80
2018-07-20T04:19:28.624Z,9.63
2018-07-20T04:21:56.947Z,12.27
2018-07-20T04:24:24.499Z,12.37
2018-07-20T04:26:52.096Z,13.00
2018-07-20T04:29:19.644Z,11.90
2018-07-20T04:31:47.197Z,10.87
2018-07-20T04:34:14.778Z,15.80
2018-07-20T04:36:42.329Z,13.93
2018-07-20T04:39:09.879Z,13.47
2018-07-20T04:41:37.470Z,16.50
2018-07-20T04:44:05.036Z,14.37
2018-07-20T04:46:32.599Z,10.37
2018-07-20T04:49:00.216Z,11.93
2018-07-20T04:51:27.769Z,11.33
2018-07-20T04:53:55.321Z,13.10
2018-07-20T04:56:22.909Z,12.73
2018-07-20T04:58:50.561Z,11.27
2018-07-20T05:01:18.043Z,12.10
2018-07-20T05:03:45.681Z,11.37
2018-07-20T05:06:13.983Z,14.57
2018-07-20T05:08:41.537Z,12.03
2018-07-20T05:11:09.600Z,13.47
2018-07-20T05:13:37.165Z,11.77
2018-07-20T05:16:04.709Z,14.30
2018-07-20T05:18:32.328Z,13.37
2018-07-20T05:20:59.897Z,12.20
2018-07-20T05:23:28.229Z,13.67
2018-07-20T05:25:55.828Z,13.77
2018-07-20T05:28:23.380Z,13.00
2018-07-20T05:30:50.984Z,14.17
2018-07-20T05:33:19.086Z,12.35
2018-07-20T05:35:46.664Z,13.90
2018-07-20T05:38:14.266Z,12.20
2018-07-20T05:40:41.824Z,15.25
2018-07-20T05:43:10.158Z,16.37
2018-07-20T05:45:37.708Z,12.80
2018-07-20T05:48:05.311Z,11.60
2018-07-20T05:50:32.868Z,11.97
2018-07-20T05:53:00.422Z,12.47
2018-07-20T05:55:28.564Z,20.57
2018-07-20T05:57:56.129Z,15.27
2018-07-20T06:00:23.696Z,14.50
2018-07-20T06:02:51.293Z,14.00
2018-07-20T06:05:19.622Z,13.17
2018-07-20T06:07:47.185Z,12.30
2018-07-20T06:10:14.785Z,12.77
2018-07-20T06:12:42.346Z,13.20
2018-07-20T06:15:09.901Z,11.43
2018-07-20T06:17:37.545Z,12.27
2018-07-20T06:20:05.105Z,13.45
2018-07-20T06:22:32.666Z,13.43
2018-07-20T06:25:00.310Z,14.80
2018-07-20T06:27:27.866Z,15.40
2018-07-20T06:29:55.426Z,11.00
2018-07-20T06:32:23.068Z,13.37
2018-07-20T06:34:50.624Z,12.63
2018-07-20T06:37:18.175Z,10.77
2018-07-20T06:39:47.019Z,21.20
2018-07-20T06:42:14.578Z,12.33
2018-07-20T06:44:42.133Z,12.20
2018-07-20T06:47:09.730Z,13.67
2018-07-20T06:49:37.290Z,12.80
2018-07-20T06:52:04.839Z,13.30
2018-07-20T06:54:32.437Z,10.43
2018-07-20T06:57:00.759Z,13.03
2018-07-20T06:59:28.315Z,12.70
2018-07-20T07:01:55.947Z,11.87
2018-07-20T07:04:23.502Z,10.50
2018-07-20T07:06:51.844Z,10.30
2018-07-20T07:09:19.498Z,13.53
2018-07-20T07:11:47.772Z,11.47
2018-07-20T07:16:53.627Z,12.50
2018-07-20T07:19:20.157Z,11.87
2018-07-20T07:21:47.717Z,11.93
2018-07-20T07:24:15.321Z,10.90
2018-07-20T07:26:42.915Z,9.30
2018-07-20T07:29:10.473Z,10.73
2018-07-20T07:31:38.871Z,14.87
2018-07-20T07:34:07.600Z,10.80
2018-07-20T07:36:35.157Z,12.10
2018-07-20T07:39:02.756Z,8.30
2018-07-20T07:41:30.313Z,9.13
2018-07-20T07:43:57.873Z,7.90
2018-07-20T07:46:25.473Z,9.63
2018-07-20T07:48:53.017Z,8.40
2018-07-20T07:51:20.567Z,9.73
2018-07-20T07:53:48.201Z,9.07
2018-07-20T07:56:15.765Z,8.30
2018-07-20T07:58:43.320Z,11.13
2018-07-20T08:01:10.929Z,9.73
2018-07-20T08:03:38.486Z,7.63
2018-07-20T08:06:06.809Z,7.53
2018-07-20T08:08:34.771Z,7.73
2018-07-20T08:11:02.319Z,7.10
2018-07-20T08:13:29.866Z,7.93
2018-07-20T08:15:57.530Z,10.47
2018-07-20T08:18:25.081Z,9.90
2018-07-20T08:20:54.673Z,9.40
2018-07-20T08:23:22.608Z,13.90
2018-07-20T08:25:50.162Z,6.23
2018-07-20T08:28:17.720Z,7.07
2018-07-20T08:30:45.348Z,9.00
2018-07-20T08:33:12.902Z,10.07
2018-07-20T08:35:41.225Z,8.63
2018-07-20T08:38:09.195Z,13.60
2018-07-20T08:40:36.738Z,9.60
2018-07-20T08:43:04.294Z,9.23
2018-07-20T08:45:31.888Z,7.70
2018-07-20T08:47:59.443Z,10.33
2018-07-20T08:50:26.992Z,8.70
2018-07-20T08:52:54.594Z,9.80
2018-07-20T08:55:22.138Z,7.10
2018-07-20T08:57:49.689Z,13.47
2018-07-20T09:00:17.822Z,9.18
2018-07-20T09:02:45.370Z,9.73
2018-07-20T09:05:13.694Z,5.82
2018-07-20T09:07:41.291Z,9.50
2018-07-20T09:10:08.841Z,12.60
2018-07-20T09:12:36.387Z,7.80
2018-07-20T09:15:03.977Z,8.45
2018-07-20T09:17:31.528Z,7.00
2018-07-20T09:19:59.108Z,12.33
2018-07-20T09:22:27.473Z,9.73
2018-07-20T09:24:55.027Z,5.80
2018-07-20T09:27:22.577Z,8.20
2018-07-20T09:29:50.177Z,7.50
2018-07-20T09:32:18.494Z,11.23
2018-07-20T09:34:46.064Z,6.40
2018-07-20T09:37:14.546Z,9.60
2018-07-20T09:39:42.275Z,7.67
2018-07-20T09:42:09.794Z,9.10
2018-07-20T09:44:37.434Z,5.90
2018-07-20T09:47:04.985Z,8.48
2018-07-20T09:49:32.539Z,6.57
2018-07-20T09:52:00.195Z,7.83
2018-07-20T09:54:27.728Z,7.27
2018-07-20T09:56:55.283Z,11.50
2018-07-20T09:59:23.733Z,7.87
2018-07-20T10:01:51.259Z,7.53
2018-07-20T10:04:18.816Z,6.30
2018-07-20T10:06:46.464Z,7.43
2018-07-20T10:09:14.801Z,7.50
2018-07-20T10:11:42.363Z,4.63
2018-07-20T10:14:09.957Z,5.53
2018-07-20T10:16:38.278Z,7.37
2018-07-20T10:19:05.875Z,5.43
2018-07-20T10:21:33.431Z,7.70
2018-07-20T10:24:00.974Z,5.60
2018-07-20T10:26:28.534Z,11.63
2018-07-20T10:28:56.192Z,5.13
2018-07-20T10:31:23.748Z,5.27
2018-07-20T10:33:51.307Z,6.17
2018-07-20T10:36:18.937Z,4.67
2018-07-20T10:38:47.254Z,9.53
2018-07-20T10:41:14.808Z,4.77
2018-07-20T10:43:42.761Z,8.37
2018-07-20T10:46:10.310Z,7.93
2018-07-20T10:48:37.865Z,7.73
2018-07-20T10:51:06.250Z,6.47
2018-07-20T10:53:33.804Z,9.20
2018-07-20T10:56:02.117Z,9.03
2018-07-20T10:58:29.748Z,8.63
2018-07-20T11:00:57.292Z,7.30
2018-07-20T11:03:25.608Z,5.83
2018-07-20T11:05:53.572Z,8.63
2018-07-20T11:08:21.272Z,8.33
2018-07-20T11:10:48.805Z,6.50
2018-07-20T11:13:16.402Z,5.93
2018-07-20T11:15:43.954Z,4.30
2018-07-20T11:18:11.505Z,7.67
2018-07-20T11:20:39.896Z,8.70
2018-07-20T11:23:07.443Z,6.03
2018-07-20T11:25:34.998Z,9.60
2018-07-20T11:28:02.995Z,5.83
2018-07-20T11:30:30.505Z,8.63
2018-07-20T11:32:58.056Z,9.20
2018-07-20T11:35:26.419Z,5.60
2018-07-20T11:37:53.962Z,9.47
2018-07-20T11:40:21.509Z,7.47
2018-07-20T11:42:49.110Z,6.80
2018-07-20T11:45:17.428Z,6.63
2018-07-20T11:47:44.976Z,6.87
2018-07-20T11:50:12.579Z,8.77
2018-07-20T11:52:40.132Z,6.43
2018-07-20T11:55:07.685Z,6.43
2018-07-20T11:57:35.304Z,4.23
2018-07-20T12:00:03.621Z,5.23
2018-07-20T12:02:31.173Z,5.50
2018-07-20T12:05:03.577Z,6.33
2018-07-20T12:07:31.129Z,5.23
2018-07-20T12:09:58.686Z,7.20
2018-07-20T12:12:26.302Z,9.53
2018-07-20T12:14:54.629Z,9.67
2018-07-20T12:17:22.176Z,7.70
2018-07-20T12:19:49.790Z,9.97
2018-07-20T12:22:17.375Z,7.10
2018-07-20T12:24:44.924Z,8.20
2018-07-20T12:27:13.288Z,11.53
2018-07-20T12:29:40.836Z,6.57
2018-07-20T12:32:08.394Z,7.43
2018-07-20T12:34:35.989Z,9.48
2018-07-20T12:37:04.300Z,9.43
2018-07-20T12:39:31.853Z,6.63
2018-07-20T12:41:59.489Z,10.23
2018-07-20T12:44:27.822Z,7.27
2018-07-20T12:46:55.380Z,9.57
2018-07-20T12:49:22.972Z,8.53
2018-07-20T12:51:50.519Z,12.53
2018-07-20T12:54:18.073Z,11.03
2018-07-20T12:56:45.685Z,6.27
2018-07-20T12:59:13.233Z,10.37
2018-07-20T13:01:41.549Z,9.43
2018-07-20T13:04:09.224Z,10.13
2018-07-20T13:06:37.485Z,11.67
2018-07-20T13:09:05.041Z,8.43
2018-07-20T13:11:33.039Z,10.27
2018-07-20T13:14:00.581Z,6.00
2018-07-20T13:16:28.133Z,7.93
2018-07-20T13:18:56.124Z,8.60
2018-07-20T13:21:23.664Z,8.77
2018-07-20T13:23:51.243Z,9.93
2018-07-20T13:26:18.842Z,9.43
2018-07-20T13:28:46.397Z,10.63
2018-07-20T13:31:13.947Z,6.60
2018-07-20T13:33:41.538Z,9.80
2018-07-20T13:36:09.859Z,14.53
2018-07-20T13:38:37.411Z,7.20
2018-07-20T13:41:05.005Z,9.43
2018-07-20T13:43:32.561Z,14.00
2018-07-20T13:46:00.113Z,9.83
2018-07-20T13:48:27.729Z,7.80
2018-07-20T13:50:56.037Z,8.83
2018-07-20T13:53:23.590Z,8.27
2018-07-20T13:55:52.093Z,7.13
2018-07-20T13:58:19.654Z,6.50
2018-07-20T14:00:47.457Z,6.60
2018-07-20T14:03:14.958Z,9.03
2018-07-20T14:05:42.506Z,14.30
2018-07-20T14:08:10.115Z,6.67
2018-07-20T14:10:37.710Z,8.93
2018-07-20T14:13:06.026Z,7.97
2018-07-20T14:15:33.573Z,8.27
2018-07-20T14:18:01.222Z,10.47
2018-07-20T14:20:29.524Z,7.57
2018-07-20T14:22:57.069Z,6.23
2018-07-20T14:25:26.694Z,5.43
2018-07-20T14:27:54.235Z,5.87
2018-07-20T14:30:22.558Z,8.17
2018-07-20T14:32:50.180Z,4.90
2018-07-20T14:35:17.737Z,9.63
2018-07-20T14:37:46.047Z,7.57
2018-07-20T14:40:14.548Z,7.43
2018-07-20T14:42:42.107Z,5.63
2018-07-20T14:45:09.707Z,4.87
2018-07-20T14:47:37.270Z,6.43
2018-07-20T14:50:04.814Z,5.40
2018-07-20T14:52:32.369Z,8.77
2018-07-20T14:55:08.862Z,8.10
2018-07-20T14:57:36.553Z,5.80
2018-07-20T15:00:04.101Z,10.70
2018-07-20T15:02:32.464Z,4.47
2018-07-20T15:05:00.021Z,3.73
2018-07-20T15:07:27.565Z,8.93
2018-07-20T15:09:55.154Z,5.23
2018-07-20T15:12:22.707Z,4.97
2018-07-20T15:14:50.247Z,5.53
2018-07-20T15:17:18.708Z,7.40
2018-07-20T15:19:46.548Z,3.73
2018-07-20T15:22:14.097Z,6.97
2018-07-20T15:24:42.205Z,3.70
2018-07-20T15:27:09.764Z,7.00
2018-07-20T15:29:37.330Z,5.50
2018-07-20T15:32:05.648Z,4.67
2018-07-20T15:34:33.194Z,9.23
2018-07-20T15:37:00.741Z,4.90
2018-07-20T15:39:29.257Z,5.75
2018-07-20T15:41:56.765Z,5.22
2018-07-20T15:44:24.356Z,4.60
2018-07-20T15:46:52.161Z,4.20
2018-07-20T15:49:19.518Z,8.70
2018-07-20T15:53:35.460Z,7.17
2018-07-20T15:54:15.456Z,4.07
2018-07-20T15:56:42.981Z,8.63
2018-07-20T15:59:10.522Z,4.70
2018-07-20T16:01:38.134Z,4.57
2018-07-20T16:04:05.691Z,5.63
2018-07-20T16:06:34.005Z,3.83
2018-07-20T16:09:01.602Z,4.77
2018-07-20T16:11:29.157Z,4.93
2018-07-20T16:13:56.685Z,3.80
2018-07-20T16:16:24.997Z,4.13
2018-07-20T16:18:52.538Z,4.37
2018-07-20T16:21:20.090Z,5.00
2018-07-20T16:23:48.464Z,5.40
2018-07-20T16:26:16.069Z,4.60
2018-07-20T16:28:43.611Z,6.37
2018-07-20T16:31:12.439Z,6.23
2018-07-20T16:33:39.990Z,6.60
2018-07-20T16:36:07.545Z,5.20
2018-07-20T16:38:35.201Z,5.33
2018-07-20T16:41:02.718Z,6.30
2018-07-20T16:43:30.270Z,4.57
2018-07-20T16:45:58.477Z,6.73
2018-07-20T16:48:26.021Z,4.83
2018-07-20T16:50:53.566Z,4.80
2018-07-20T16:53:21.160Z,4.70
2018-07-20T16:55:48.708Z,6.90
2018-07-20T16:58:16.293Z,5.63
2018-07-20T17:00:43.861Z,8.10
2018-07-20T17:03:11.422Z,5.40
2018-07-20T17:05:38.967Z,5.57
2018-07-20T17:08:07.109Z,5.20
2018-07-20T17:10:34.705Z,5.20
2018-07-20T17:13:02.215Z,6.40
2018-07-20T17:15:29.800Z,7.57
2018-07-20T17:17:57.352Z,6.57
2018-07-20T17:20:24.899Z,7.63
2018-07-20T17:22:53.259Z,5.00
2018-07-20T17:25:20.804Z,5.80
2018-07-20T17:27:48.390Z,7.93
2018-07-20T17:30:16.335Z,6.10
2018-07-20T17:32:43.886Z,4.87
2018-07-20T17:35:11.440Z,10.73
2018-07-20T17:37:39.060Z,9.97
2018-07-20T17:40:06.608Z,6.20
2018-07-20T17:42:34.921Z,7.27
2018-07-20T17:45:02.609Z,6.47
2018-07-20T17:47:30.096Z,8.90
2018-07-20T17:49:57.646Z,9.70
2018-07-20T17:52:25.290Z,7.77
2018-07-20T17:54:52.839Z,6.73
2018-07-20T17:57:20.395Z,10.27
2018-07-20T17:59:48.916Z,6.53
2018-07-20T18:02:16.528Z,6.67
2018-07-20T18:04:44.039Z,7.63
2018-07-20T18:07:12.509Z,8.27
2018-07-20T18:09:40.181Z,6.77
2018-07-20T18:12:07.733Z,6.83
2018-07-20T18:14:35.348Z,7.77
2018-07-20T18:17:02.916Z,7.10
2018-07-20T18:19:31.211Z,7.70
2018-07-20T18:21:58.808Z,7.10
2018-07-20T18:24:26.382Z,10.73
2018-07-20T18:26:53.957Z,4.80
2018-07-20T18:29:22.906Z,4.80
2018-07-20T18:31:50.464Z,9.30
2018-07-20T18:34:18.019Z,8.13
2018-07-20T18:36:46.020Z,6.00
2018-07-20T18:39:13.532Z,6.13
2018-07-20T18:41:41.079Z,7.00
2018-07-20T18:44:08.848Z,8.30
2018-07-20T18:46:36.395Z,8.23
2018-07-20T18:49:04.703Z,6.57
2018-07-20T18:51:32.306Z,5.33
2018-07-20T18:53:59.866Z,9.47
2018-07-20T18:56:27.411Z,6.97
2018-07-20T18:58:55.380Z,5.70
2018-07-20T19:01:22.930Z,6.30
2018-07-20T19:03:50.480Z,7.93
2018-07-20T19:06:18.086Z,7.33
2018-07-20T19:08:45.638Z,6.90
2018-07-20T19:11:13.191Z,7.03
2018-07-20T19:13:40.790Z,8.33
2018-07-20T19:16:08.332Z,8.07
2018-07-20T19:18:35.883Z,9.77
2018-07-20T19:21:03.512Z,10.40
2018-07-20T19:23:31.108Z,7.73
2018-07-20T19:25:58.639Z,8.93
2018-07-20T19:28:26.233Z,7.40
2018-07-20T19:30:53.778Z,7.00
2018-07-20T19:33:21.328Z,8.95
2018-07-20T19:35:48.963Z,8.20
2018-07-20T19:38:16.509Z,10.77
2018-07-20T19:40:44.058Z,9.10
2018-07-20T19:43:12.939Z,10.93
2018-07-20T19:45:40.489Z,10.07
2018-07-20T19:48:08.039Z,9.77
2018-07-20T19:50:35.640Z,10.07
2018-07-20T19:53:03.189Z,8.07
2018-07-20T19:55:31.505Z,9.20
2018-07-20T19:57:59.093Z,10.77
2018-07-20T20:00:26.647Z,9.63
2018-07-20T20:02:54.204Z,14.50
2018-07-20T20:05:21.836Z,7.53
2018-07-20T20:07:49.381Z,7.70
2018-07-20T20:10:17.706Z,7.17
2018-07-20T20:12:45.680Z,8.10
2018-07-20T20:15:13.247Z,8.37
2018-07-20T20:17:40.803Z,8.77
2018-07-20T20:20:08.439Z,8.90
2018-07-20T20:22:35.993Z,10.25
2018-07-20T20:25:03.568Z,11.60
2018-07-20T20:27:31.864Z,11.80
2018-07-20T20:29:59.412Z,9.53
2018-07-20T20:32:26.970Z,8.60
2018-07-20T20:34:54.568Z,8.30
2018-07-20T20:37:22.122Z,12.03
2018-07-20T20:39:49.665Z,7.80
2018-07-20T20:42:17.731Z,9.90
2018-07-20T20:44:45.282Z,10.83
2018-07-20T20:47:12.841Z,10.07
2018-07-20T20:49:40.469Z,10.60
2018-07-20T20:52:08.032Z,8.73
2018-07-20T20:54:35.587Z,8.27
2018-07-20T20:57:03.536Z,7.73
2018-07-20T20:59:31.086Z,10.03
2018-07-20T21:01:58.638Z,9.88
2018-07-20T21:04:26.254Z,7.33
2018-07-20T21:06:53.791Z,10.73
2018-07-20T21:09:21.349Z,7.60
2018-07-20T21:11:48.978Z,7.53
2018-07-20T21:14:17.262Z,6.50
2018-07-20T21:16:44.811Z,11.40
2018-07-20T21:19:12.796Z,8.90
2018-07-20T21:21:40.345Z,8.80
2018-07-20T21:24:07.899Z,10.30
2018-07-20T21:26:35.551Z,6.43
2018-07-20T21:29:03.103Z,7.97
2018-07-20T21:31:30.685Z,8.03
2018-07-20T21:33:58.240Z,8.20
2018-07-20T21:36:25.794Z,6.97
2018-07-20T21:38:53.339Z,8.60
2018-07-20T21:41:22.577Z,8.30
2018-07-20T21:43:50.131Z,10.30
2018-07-20T21:46:17.707Z,8.37
2018-07-20T21:48:45.965Z,10.13
2018-07-20T21:51:13.458Z,9.60
2018-07-20T21:53:41.004Z,8.93
2018-07-20T21:56:08.652Z,9.77
2018-07-20T21:58:36.209Z,14.33
2018-07-20T22:01:03.791Z,13.60
2018-07-20T22:03:31.943Z,10.03
2018-07-20T22:05:59.502Z,9.60
2018-07-20T22:08:27.111Z,9.77
2018-07-20T22:10:55.059Z,9.83
2018-07-20T22:13:22.609Z,9.83
2018-07-20T22:15:50.154Z,9.37
2018-07-20T22:18:17.750Z,9.83
2018-07-20T22:20:45.312Z,9.60
2018-07-20T22:23:12.870Z,10.77
2018-07-20T22:25:40.450Z,8.10
2018-07-20T22:28:08.107Z,8.33
2018-07-20T22:30:35.662Z,12.30
2018-07-20T22:33:04.231Z,13.15
2018-07-20T22:35:31.785Z,7.80
2018-07-20T22:37:59.343Z,11.77
2018-07-20T22:40:27.831Z,9.27
2018-07-20T22:42:55.383Z,8.77
2018-07-20T22:45:22.931Z,9.27
2018-07-20T22:47:50.565Z,9.57
2018-07-20T22:50:18.883Z,10.10
2018-07-20T22:52:46.436Z,10.17
2018-07-20T22:55:14.030Z,14.97
2018-07-20T22:57:41.587Z,12.37
2018-07-20T23:00:09.153Z,10.43
2018-07-20T23:02:37.215Z,9.83
2018-07-20T23:05:04.767Z,9.30
2018-07-20T23:07:32.314Z,10.50
2018-07-20T23:09:59.895Z,9.20
2018-07-20T23:12:27.456Z,8.33
2018-07-20T23:14:55.009Z,12.40
2018-07-20T23:17:22.597Z,11.50
2018-07-20T23:19:50.152Z,11.33
2018-07-20T23:22:17.705Z,10.77
2018-07-20T23:24:45.312Z,12.52
2018-07-20T23:27:13.647Z,13.20
2018-07-20T23:29:41.197Z,11.40
2018-07-20T23:32:08.785Z,10.40
2018-07-20T23:34:36.341Z,10.43
2018-07-20T23:37:03.903Z,10.53
2018-07-20T23:39:31.483Z,9.63
2018-07-20T23:41:59.031Z,9.67
2018-07-20T23:44:26.582Z,9.37
2018-07-20T23:46:54.194Z,8.87
2018-07-20T23:49:21.743Z,10.80
2018-07-20T23:51:49.290Z,8.33
2018-07-20T23:54:16.872Z,9.70
2018-07-20T23:56:45.192Z,9.90
2018-07-20T23:59:12.746Z,12.30
